sensor_id;sensor_type;location;lat;lon;timestamp;temperature;humidity
2893;DHT22;1456;51.840;12.184;2022-07-22T00:00:13;22.00;99.90
2893;DHT22;1456;51.840;12.184;2022-07-22T00:02:39;21.90;99.90
2893;DHT22;1456;51.840;12.184;2022-07-22T00:05:06;21.90;99.90
2893;DHT22;1456;51.840;12.184;2022-07-22T00:07:32;21.90;99.90
2893;DHT22;1456;51.840;12.184;2022-07-22T00:09:59;21.90;99.90
2893;DHT22;1456;51.840;12.184;2022-07-22T00:12:25;21.90;99.90
2893;DHT22;1456;51.840;12.184;2022-07-22T00:14:51;21.90;99.90
2893;DHT22;1456;51.840;12.184;2022-07-22T00:17:18;21.90;99.90
2893;DHT22;1456;51.840;12.184;2022-07-22T00:19:44;21.90;99.90
2893;DHT22;1456;51.840;12.184;2022-07-22T00:22:10;21.90;99.90
2893;DHT22;1456;51.840;12.184;2022-07-22T00:24:36;21.90;99.90
2893;DHT22;1456;51.840;12.184;2022-07-22T00:27:02;21.90;99.90
2893;DHT22;1456;51.840;12.184;2022-07-22T00:29:28;21.70;99.90
2893;DHT22;1456;51.840;12.184;2022-07-22T00:31:53;21.70;99.90
2893;DHT22;1456;51.840;12.184;2022-07-22T00:34:19;21.50;99.90
2893;DHT22;1456;51.840;12.184;2022-07-22T00:36:48;21.50;99.90
2893;DHT22;1456;51.840;12.184;2022-07-22T00:39:14;21.40;99.90
2893;DHT22;1456;51.840;12.184;2022-07-22T00:41:41;21.30;99.90
2893;DHT22;1456;51.840;12.184;2022-07-22T00:44:08;21.20;99.90
2893;DHT22;1456;51.840;12.184;2022-07-22T00:46:35;21.20;99.90
2893;DHT22;1456;51.840;12.184;2022-07-22T00:49:02;21.10;99.90
2893;DHT22;1456;51.840;12.184;2022-07-22T00:51:29;21.10;99.90
2893;DHT22;1456;51.840;12.184;2022-07-22T00:53:55;21.00;99.90
2893;DHT22;1456;51.840;12.184;2022-07-22T00:56:23;21.00;99.90
2893;DHT22;1456;51.840;12.184;2022-07-22T00:58:52;20.90;99.90
2893;DHT22;1456;51.840;12.184;2022-07-22T01:01:18;20.90;99.90
2893;DHT22;1456;51.840;12.184;2022-07-22T01:03:44;20.80;99.90
2893;DHT22;1456;51.840;12.184;2022-07-22T01:06:10;20.80;99.90
2893;DHT22;1456;51.840;12.184;2022-07-22T01:08:37;20.80;99.90
2893;DHT22;1456;51.840;12.184;2022-07-22T01:11:15;20.70;99.90
2893;DHT22;1456;51.840;12.184;2022-07-22T01:13:42;20.70;99.90
2893;DHT22;1456;51.840;12.184;2022-07-22T01:16:09;20.70;99.90
2893;DHT22;1456;51.840;12.184;2022-07-22T01:18:36;20.70;99.90
2893;DHT22;1456;51.840;12.184;2022-07-22T01:21:02;20.70;99.90
2893;DHT22;1456;51.840;12.184;2022-07-22T01:23:28;20.80;99.90
2893;DHT22;1456;51.840;12.184;2022-07-22T01:25:54;20.80;99.90
2893;DHT22;1456;51.840;12.184;2022-07-22T01:28:19;20.70;99.90
2893;DHT22;1456;51.840;12.184;2022-07-22T01:30:45;20.60;99.90
2893;DHT22;1456;51.840;12.184;2022-07-22T01:33:11;20.50;99.90
2893;DHT22;1456;51.840;12.184;2022-07-22T01:35:37;20.50;99.90
2893;DHT22;1456;51.840;12.184;2022-07-22T01:38:03;20.40;99.90
2893;DHT22;1456;51.840;12.184;2022-07-22T01:40:29;20.40;99.90
2893;DHT22;1456;51.840;12.184;2022-07-22T01:42:54;20.40;99.90
2893;DHT22;1456;51.840;12.184;2022-07-22T01:45:20;20.40;99.90
2893;DHT22;1456;51.840;12.184;2022-07-22T01:47:45;20.40;99.90
2893;DHT22;1456;51.840;12.184;2022-07-22T01:50:11;20.40;99.90
2893;DHT22;1456;51.840;12.184;2022-07-22T01:52:38;20.40;99.90
2893;DHT22;1456;51.840;12.184;2022-07-22T01:55:08;20.40;99.90
2893;DHT22;1456;51.840;12.184;2022-07-22T01:57:35;20.40;99.90
2893;DHT22;1456;51.840;12.184;2022-07-22T02:00:01;20.40;99.90
2893;DHT22;1456;51.840;12.184;2022-07-22T02:02:26;20.40;99.90
2893;DHT22;1456;51.840;12.184;2022-07-22T02:04:52;20.40;99.90
2893;DHT22;1456;51.840;12.184;2022-07-22T02:07:18;20.40;99.90
2893;DHT22;1456;51.840;12.184;2022-07-22T02:09:43;20.50;99.90
2893;DHT22;1456;51.840;12.184;2022-07-22T02:12:09;20.50;99.90
2893;DHT22;1456;51.840;12.184;2022-07-22T02:14:34;20.40;99.90
2893;DHT22;1456;51.840;12.184;2022-07-22T02:17:00;20.50;99.90
2893;DHT22;1456;51.840;12.184;2022-07-22T02:19:26;20.60;99.90
2893;DHT22;1456;51.840;12.184;2022-07-22T02:21:51;20.60;99.90
2893;DHT22;1456;51.840;12.184;2022-07-22T02:24:17;20.60;99.90
2893;DHT22;1456;51.840;12.184;2022-07-22T02:26:42;20.70;99.90
2893;DHT22;1456;51.840;12.184;2022-07-22T02:29:08;20.70;99.90
2893;DHT22;1456;51.840;12.184;2022-07-22T02:31:34;20.80;99.90
2893;DHT22;1456;51.840;12.184;2022-07-22T02:33:59;21.00;99.90
2893;DHT22;1456;51.840;12.184;2022-07-22T02:36:25;21.00;99.90
2893;DHT22;1456;51.840;12.184;2022-07-22T02:38:51;21.10;99.90
2893;DHT22;1456;51.840;12.184;2022-07-22T02:41:17;21.20;99.90
2893;DHT22;1456;51.840;12.184;2022-07-22T02:43:42;21.20;99.90
2893;DHT22;1456;51.840;12.184;2022-07-22T02:46:08;21.20;99.90
2893;DHT22;1456;51.840;12.184;2022-07-22T02:48:33;21.30;99.90
2893;DHT22;1456;51.840;12.184;2022-07-22T02:50:59;21.10;99.90
2893;DHT22;1456;51.840;12.184;2022-07-22T02:53:25;21.00;99.90
2893;DHT22;1456;51.840;12.184;2022-07-22T02:55:50;20.90;99.90
2893;DHT22;1456;51.840;12.184;2022-07-22T02:58:16;20.90;99.90
2893;DHT22;1456;51.840;12.184;2022-07-22T03:00:42;20.90;99.90
2893;DHT22;1456;51.840;12.184;2022-07-22T03:03:08;20.80;99.90
2893;DHT22;1456;51.840;12.184;2022-07-22T03:05:33;20.80;99.90
2893;DHT22;1456;51.840;12.184;2022-07-22T03:07:59;20.80;99.90
2893;DHT22;1456;51.840;12.184;2022-07-22T03:10:25;20.80;99.90
2893;DHT22;1456;51.840;12.184;2022-07-22T03:12:51;20.80;99.90
2893;DHT22;1456;51.840;12.184;2022-07-22T03:15:16;20.80;99.90
2893;DHT22;1456;51.840;12.184;2022-07-22T03:17:44;20.80;99.90
2893;DHT22;1456;51.840;12.184;2022-07-22T03:20:10;20.80;99.90
2893;DHT22;1456;51.840;12.184;2022-07-22T03:22:36;20.90;99.90
2893;DHT22;1456;51.840;12.184;2022-07-22T03:25:03;20.90;99.90
2893;DHT22;1456;51.840;12.184;2022-07-22T03:27:29;20.90;99.90
2893;DHT22;1456;51.840;12.184;2022-07-22T03:29:55;20.90;99.90
2893;DHT22;1456;51.840;12.184;2022-07-22T03:32:21;20.90;99.90
2893;DHT22;1456;51.840;12.184;2022-07-22T03:34:46;20.80;99.90
2893;DHT22;1456;51.840;12.184;2022-07-22T03:37:12;20.80;99.90
2893;DHT22;1456;51.840;12.184;2022-07-22T03:39:38;20.80;99.90
2893;DHT22;1456;51.840;12.184;2022-07-22T03:42:03;20.80;99.90
2893;DHT22;1456;51.840;12.184;2022-07-22T03:44:29;20.90;99.90
2893;DHT22;1456;51.840;12.184;2022-07-22T03:46:55;20.90;99.90
2893;DHT22;1456;51.840;12.184;2022-07-22T03:49:20;20.90;99.90
2893;DHT22;1456;51.840;12.184;2022-07-22T03:51:47;21.10;99.90
2893;DHT22;1456;51.840;12.184;2022-07-22T03:54:12;21.20;99.90
2893;DHT22;1456;51.840;12.184;2022-07-22T03:56:38;21.20;99.90
2893;DHT22;1456;51.840;12.184;2022-07-22T03:59:04;21.20;99.90
2893;DHT22;1456;51.840;12.184;2022-07-22T04:01:30;21.20;99.90
2893;DHT22;1456;51.840;12.184;2022-07-22T04:03:55;21.30;99.90
2893;DHT22;1456;51.840;12.184;2022-07-22T04:06:22;21.30;99.90
2893;DHT22;1456;51.840;12.184;2022-07-22T04:08:48;21.30;99.90
2893;DHT22;1456;51.840;12.184;2022-07-22T04:11:14;21.40;99.90
2893;DHT22;1456;51.840;12.184;2022-07-22T04:13:39;21.40;99.90
2893;DHT22;1456;51.840;12.184;2022-07-22T04:16:05;21.40;99.90
2893;DHT22;1456;51.840;12.184;2022-07-22T04:18:31;21.30;99.90
2893;DHT22;1456;51.840;12.184;2022-07-22T04:20:57;21.10;99.90
2893;DHT22;1456;51.840;12.184;2022-07-22T04:23:23;21.10;99.90
2893;DHT22;1456;51.840;12.184;2022-07-22T04:25:48;21.10;99.90
2893;DHT22;1456;51.840;12.184;2022-07-22T04:28:14;21.20;99.90
2893;DHT22;1456;51.840;12.184;2022-07-22T04:30:39;21.20;99.90
2893;DHT22;1456;51.840;12.184;2022-07-22T04:33:05;21.20;99.90
2893;DHT22;1456;51.840;12.184;2022-07-22T04:35:32;21.20;99.90
2893;DHT22;1456;51.840;12.184;2022-07-22T04:37:57;21.20;99.90
2893;DHT22;1456;51.840;12.184;2022-07-22T04:40:23;21.20;99.90
2893;DHT22;1456;51.840;12.184;2022-07-22T04:42:49;21.30;99.90
2893;DHT22;1456;51.840;12.184;2022-07-22T04:45:14;21.30;99.90
2893;DHT22;1456;51.840;12.184;2022-07-22T04:47:40;21.40;99.90
2893;DHT22;1456;51.840;12.184;2022-07-22T04:50:06;21.40;99.90
2893;DHT22;1456;51.840;12.184;2022-07-22T04:52:32;21.40;99.90
2893;DHT22;1456;51.840;12.184;2022-07-22T04:54:57;21.50;99.90
2893;DHT22;1456;51.840;12.184;2022-07-22T04:57:24;21.30;99.90
2893;DHT22;1456;51.840;12.184;2022-07-22T04:59:51;21.30;99.90
2893;DHT22;1456;51.840;12.184;2022-07-22T05:02:17;21.20;99.90
2893;DHT22;1456;51.840;12.184;2022-07-22T05:04:43;21.10;99.90
2893;DHT22;1456;51.840;12.184;2022-07-22T05:07:08;21.00;99.90
2893;DHT22;1456;51.840;12.184;2022-07-22T05:09:34;21.00;99.90
2893;DHT22;1456;51.840;12.184;2022-07-22T05:11:59;20.80;99.90
2893;DHT22;1456;51.840;12.184;2022-07-22T05:14:25;20.90;99.90
2893;DHT22;1456;51.840;12.184;2022-07-22T05:16:51;20.80;99.90
2893;DHT22;1456;51.840;12.184;2022-07-22T05:19:16;20.80;99.90
2893;DHT22;1456;51.840;12.184;2022-07-22T05:21:42;20.80;99.90
2893;DHT22;1456;51.840;12.184;2022-07-22T05:24:08;20.90;99.90
2893;DHT22;1456;51.840;12.184;2022-07-22T05:26:33;21.10;99.90
2893;DHT22;1456;51.840;12.184;2022-07-22T05:28:59;21.20;99.90
2893;DHT22;1456;51.840;12.184;2022-07-22T05:31:25;21.10;99.90
2893;DHT22;1456;51.840;12.184;2022-07-22T05:33:51;21.30;99.90
2893;DHT22;1456;51.840;12.184;2022-07-22T05:36:17;21.30;99.90
2893;DHT22;1456;51.840;12.184;2022-07-22T05:38:43;21.40;99.90
2893;DHT22;1456;51.840;12.184;2022-07-22T05:41:08;21.40;99.90
2893;DHT22;1456;51.840;12.184;2022-07-22T05:43:34;21.60;99.90
2893;DHT22;1456;51.840;12.184;2022-07-22T05:45:59;21.60;99.90
2893;DHT22;1456;51.840;12.184;2022-07-22T05:48:25;21.60;99.90
2893;DHT22;1456;51.840;12.184;2022-07-22T05:50:53;21.80;99.90
2893;DHT22;1456;51.840;12.184;2022-07-22T05:53:18;22.00;99.90
2893;DHT22;1456;51.840;12.184;2022-07-22T05:55:44;22.20;99.90
2893;DHT22;1456;51.840;12.184;2022-07-22T05:58:10;22.10;99.90
2893;DHT22;1456;51.840;12.184;2022-07-22T06:00:35;22.20;99.90
2893;DHT22;1456;51.840;12.184;2022-07-22T06:03:01;22.30;99.90
2893;DHT22;1456;51.840;12.184;2022-07-22T06:05:27;22.50;99.90
2893;DHT22;1456;51.840;12.184;2022-07-22T06:07:52;22.70;99.90
2893;DHT22;1456;51.840;12.184;2022-07-22T06:10:18;22.80;99.90
2893;DHT22;1456;51.840;12.184;2022-07-22T06:12:43;23.10;99.90
2893;DHT22;1456;51.840;12.184;2022-07-22T06:15:09;23.30;99.90
2893;DHT22;1456;51.840;12.184;2022-07-22T06:17:35;23.10;99.90
2893;DHT22;1456;51.840;12.184;2022-07-22T06:20:01;23.30;99.90
2893;DHT22;1456;51.840;12.184;2022-07-22T06:22:27;23.50;99.90
2893;DHT22;1456;51.840;12.184;2022-07-22T06:24:53;23.50;99.90
2893;DHT22;1456;51.840;12.184;2022-07-22T06:27:18;23.50;99.90
2893;DHT22;1456;51.840;12.184;2022-07-22T06:29:44;23.60;99.90
2893;DHT22;1456;51.840;12.184;2022-07-22T06:32:10;23.80;99.90
2893;DHT22;1456;51.840;12.184;2022-07-22T06:34:35;24.30;99.90
2893;DHT22;1456;51.840;12.184;2022-07-22T06:37:01;24.40;99.90
2893;DHT22;1456;51.840;12.184;2022-07-22T06:39:27;24.40;99.90
2893;DHT22;1456;51.840;12.184;2022-07-22T06:41:53;24.10;99.90
2893;DHT22;1456;51.840;12.184;2022-07-22T06:44:18;24.00;99.90
2893;DHT22;1456;51.840;12.184;2022-07-22T06:46:44;24.20;99.90
2893;DHT22;1456;51.840;12.184;2022-07-22T06:49:10;24.30;99.90
2893;DHT22;1456;51.840;12.184;2022-07-22T06:51:35;24.20;99.90
2893;DHT22;1456;51.840;12.184;2022-07-22T06:54:01;24.60;99.90
2893;DHT22;1456;51.840;12.184;2022-07-22T06:56:27;24.90;99.90
2893;DHT22;1456;51.840;12.184;2022-07-22T06:58:52;24.80;99.90
2893;DHT22;1456;51.840;12.184;2022-07-22T07:01:18;24.40;99.90
2893;DHT22;1456;51.840;12.184;2022-07-22T07:03:45;24.40;99.90
2893;DHT22;1456;51.840;12.184;2022-07-22T07:06:11;24.10;99.90
2893;DHT22;1456;51.840;12.184;2022-07-22T07:08:38;23.90;99.90
2893;DHT22;1456;51.840;12.184;2022-07-22T07:11:04;23.80;99.90
2893;DHT22;1456;51.840;12.184;2022-07-22T07:13:31;24.10;99.90
2893;DHT22;1456;51.840;12.184;2022-07-22T07:15:56;24.50;99.90
2893;DHT22;1456;51.840;12.184;2022-07-22T07:18:22;24.90;99.90
2893;DHT22;1456;51.840;12.184;2022-07-22T07:20:48;25.20;99.90
2893;DHT22;1456;51.840;12.184;2022-07-22T07:23:14;25.30;99.90
2893;DHT22;1456;51.840;12.184;2022-07-22T07:25:40;25.00;99.90
2893;DHT22;1456;51.840;12.184;2022-07-22T07:28:06;24.70;99.90
2893;DHT22;1456;51.840;12.184;2022-07-22T07:30:32;24.60;99.90
2893;DHT22;1456;51.840;12.184;2022-07-22T07:32:58;24.10;99.90
2893;DHT22;1456;51.840;12.184;2022-07-22T07:35:26;23.30;99.90
2893;DHT22;1456;51.840;12.184;2022-07-22T07:37:52;22.80;99.90
2893;DHT22;1456;51.840;12.184;2022-07-22T07:40:18;22.40;99.90
2893;DHT22;1456;51.840;12.184;2022-07-22T07:42:44;22.40;99.90
2893;DHT22;1456;51.840;12.184;2022-07-22T07:45:10;22.50;99.90
2893;DHT22;1456;51.840;12.184;2022-07-22T07:47:36;22.50;99.90
2893;DHT22;1456;51.840;12.184;2022-07-22T07:50:06;22.70;99.90
2893;DHT22;1456;51.840;12.184;2022-07-22T07:52:40;22.60;99.90
2893;DHT22;1456;51.840;12.184;2022-07-22T07:55:07;22.50;99.90
2893;DHT22;1456;51.840;12.184;2022-07-22T07:57:35;22.40;99.90
2893;DHT22;1456;51.840;12.184;2022-07-22T08:00:03;22.30;99.90
2893;DHT22;1456;51.840;12.184;2022-07-22T08:02:29;22.20;99.90
2893;DHT22;1456;51.840;12.184;2022-07-22T08:04:55;22.20;99.90
2893;DHT22;1456;51.840;12.184;2022-07-22T08:07:20;22.30;99.90
2893;DHT22;1456;51.840;12.184;2022-07-22T08:09:46;22.60;99.90
2893;DHT22;1456;51.840;12.184;2022-07-22T08:12:12;22.90;99.90
2893;DHT22;1456;51.840;12.184;2022-07-22T08:14:37;23.50;99.90
2893;DHT22;1456;51.840;12.184;2022-07-22T08:17:03;23.90;99.90
2893;DHT22;1456;51.840;12.184;2022-07-22T08:19:29;24.10;99.90
2893;DHT22;1456;51.840;12.184;2022-07-22T08:21:54;24.30;99.90
2893;DHT22;1456;51.840;12.184;2022-07-22T08:24:20;24.60;99.90
2893;DHT22;1456;51.840;12.184;2022-07-22T08:26:46;24.80;99.90
2893;DHT22;1456;51.840;12.184;2022-07-22T08:29:11;24.90;99.90
2893;DHT22;1456;51.840;12.184;2022-07-22T08:31:37;25.00;99.90
2893;DHT22;1456;51.840;12.184;2022-07-22T08:34:04;24.90;99.90
2893;DHT22;1456;51.840;12.184;2022-07-22T08:36:30;24.60;99.90
2893;DHT22;1456;51.840;12.184;2022-07-22T08:38:56;24.80;99.90
2893;DHT22;1456;51.840;12.184;2022-07-22T08:41:23;25.00;99.90
2893;DHT22;1456;51.840;12.184;2022-07-22T08:43:50;24.90;99.90
2893;DHT22;1456;51.840;12.184;2022-07-22T08:46:16;24.70;99.90
2893;DHT22;1456;51.840;12.184;2022-07-22T08:48:42;24.10;99.90
2893;DHT22;1456;51.840;12.184;2022-07-22T08:51:09;23.40;99.90
2893;DHT22;1456;51.840;12.184;2022-07-22T08:53:35;23.20;99.90
2893;DHT22;1456;51.840;12.184;2022-07-22T08:56:01;23.60;99.90
2893;DHT22;1456;51.840;12.184;2022-07-22T08:58:27;24.10;99.90
2893;DHT22;1456;51.840;12.184;2022-07-22T09:01:10;24.40;99.90
2893;DHT22;1456;51.840;12.184;2022-07-22T09:03:48;24.90;99.90
2893;DHT22;1456;51.840;12.184;2022-07-22T09:06:16;25.60;99.90
2893;DHT22;1456;51.840;12.184;2022-07-22T09:08:56;26.00;99.90
2893;DHT22;1456;51.840;12.184;2022-07-22T09:11:25;26.00;99.90
2893;DHT22;1456;51.840;12.184;2022-07-22T09:13:52;26.00;99.90
2893;DHT22;1456;51.840;12.184;2022-07-22T09:16:41;26.10;99.90
2893;DHT22;1456;51.840;12.184;2022-07-22T09:19:07;26.50;99.90
2893;DHT22;1456;51.840;12.184;2022-07-22T09:21:38;26.50;99.90
2893;DHT22;1456;51.840;12.184;2022-07-22T09:24:05;26.70;99.90
2893;DHT22;1456;51.840;12.184;2022-07-22T09:26:35;26.60;99.90
2893;DHT22;1456;51.840;12.184;2022-07-22T09:29:01;26.20;99.90
2893;DHT22;1456;51.840;12.184;2022-07-22T09:31:31;26.10;99.90
2893;DHT22;1456;51.840;12.184;2022-07-22T09:33:58;26.30;99.90
2893;DHT22;1456;51.840;12.184;2022-07-22T09:36:24;26.40;99.90
2893;DHT22;1456;51.840;12.184;2022-07-22T09:38:50;26.80;99.90
2893;DHT22;1456;51.840;12.184;2022-07-22T09:41:16;26.80;99.90
2893;DHT22;1456;51.840;12.184;2022-07-22T09:43:42;26.90;99.90
2893;DHT22;1456;51.840;12.184;2022-07-22T09:46:08;26.90;99.60
2893;DHT22;1456;51.840;12.184;2022-07-22T09:48:36;26.60;99.90
2893;DHT22;1456;51.840;12.184;2022-07-22T09:51:04;26.50;99.90
2893;DHT22;1456;51.840;12.184;2022-07-22T09:53:30;26.40;99.90
2893;DHT22;1456;51.840;12.184;2022-07-22T09:55:57;26.30;99.90
2893;DHT22;1456;51.840;12.184;2022-07-22T09:58:24;26.10;99.90
2893;DHT22;1456;51.840;12.184;2022-07-22T10:00:51;26.30;99.90
2893;DHT22;1456;51.840;12.184;2022-07-22T10:03:29;26.20;99.90
2893;DHT22;1456;51.840;12.184;2022-07-22T10:05:56;26.40;99.90
2893;DHT22;1456;51.840;12.184;2022-07-22T10:08:25;26.40;99.80
2893;DHT22;1456;51.840;12.184;2022-07-22T10:10:52;26.50;98.00
2893;DHT22;1456;51.840;12.184;2022-07-22T10:13:19;26.70;98.40
2893;DHT22;1456;51.840;12.184;2022-07-22T10:15:45;26.90;98.00
2893;DHT22;1456;51.840;12.184;2022-07-22T10:18:16;27.30;97.20
2893;DHT22;1456;51.840;12.184;2022-07-22T10:20:42;27.60;96.00
2893;DHT22;1456;51.840;12.184;2022-07-22T10:23:10;28.20;98.00
2893;DHT22;1456;51.840;12.184;2022-07-22T10:25:58;28.70;94.10
2893;DHT22;1456;51.840;12.184;2022-07-22T10:28:31;28.50;95.00
2893;DHT22;1456;51.840;12.184;2022-07-22T10:31:26;28.80;94.80
2893;DHT22;1456;51.840;12.184;2022-07-22T10:33:54;28.70;93.40
2893;DHT22;1456;51.840;12.184;2022-07-22T10:36:37;28.30;93.30
2893;DHT22;1456;51.840;12.184;2022-07-22T10:39:10;28.40;93.10
2893;DHT22;1456;51.840;12.184;2022-07-22T10:41:41;28.50;94.10
2893;DHT22;1456;51.840;12.184;2022-07-22T10:44:07;29.10;95.20
2893;DHT22;1456;51.840;12.184;2022-07-22T10:46:51;29.70;94.50
2893;DHT22;1456;51.840;12.184;2022-07-22T10:49:20;30.10;94.00
2893;DHT22;1456;51.840;12.184;2022-07-22T10:52:12;30.60;92.10
2893;DHT22;1456;51.840;12.184;2022-07-22T10:57:42;29.80;90.70
2893;DHT22;1456;51.840;12.184;2022-07-22T11:00:08;29.60;91.60
2893;DHT22;1456;51.840;12.184;2022-07-22T11:02:35;30.20;90.70
2893;DHT22;1456;51.840;12.184;2022-07-22T11:05:08;30.70;92.00
2893;DHT22;1456;51.840;12.184;2022-07-22T11:07:40;31.80;92.50
2893;DHT22;1456;51.840;12.184;2022-07-22T11:10:17;32.90;87.50
2893;DHT22;1456;51.840;12.184;2022-07-22T11:12:44;32.90;83.20
2893;DHT22;1456;51.840;12.184;2022-07-22T11:15:11;32.80;80.60
2893;DHT22;1456;51.840;12.184;2022-07-22T11:17:37;32.10;82.60
2893;DHT22;1456;51.840;12.184;2022-07-22T11:20:08;31.40;88.20
2893;DHT22;1456;51.840;12.184;2022-07-22T11:22:38;31.30;81.00
2893;DHT22;1456;51.840;12.184;2022-07-22T11:25:10;31.10;88.10
2893;DHT22;1456;51.840;12.184;2022-07-22T11:27:39;32.10;89.20
2893;DHT22;1456;51.840;12.184;2022-07-22T11:30:05;31.80;81.60
2893;DHT22;1456;51.840;12.184;2022-07-22T11:32:41;31.30;88.20
2893;DHT22;1456;51.840;12.184;2022-07-22T11:35:11;32.20;88.00
2893;DHT22;1456;51.840;12.184;2022-07-22T11:37:37;33.10;86.00
2893;DHT22;1456;51.840;12.184;2022-07-22T11:40:05;32.90;81.60
2893;DHT22;1456;51.840;12.184;2022-07-22T11:42:32;32.00;79.80
2893;DHT22;1456;51.840;12.184;2022-07-22T11:44:58;30.80;85.40
2893;DHT22;1456;51.840;12.184;2022-07-22T11:47:23;30.80;90.20
2893;DHT22;1456;51.840;12.184;2022-07-22T11:49:49;31.50;88.00
2893;DHT22;1456;51.840;12.184;2022-07-22T11:52:15;31.90;82.60
2893;DHT22;1456;51.840;12.184;2022-07-22T11:54:41;32.60;83.90
2893;DHT22;1456;51.840;12.184;2022-07-22T11:57:07;33.70;77.60
2893;DHT22;1456;51.840;12.184;2022-07-22T11:59:34;33.40;79.50
2893;DHT22;1456;51.840;12.184;2022-07-22T12:02:02;32.20;74.70
2893;DHT22;1456;51.840;12.184;2022-07-22T12:04:29;31.10;83.00
2893;DHT22;1456;51.840;12.184;2022-07-22T12:06:58;30.40;86.50
2893;DHT22;1456;51.840;12.184;2022-07-22T12:09:25;30.20;81.20
2893;DHT22;1456;51.840;12.184;2022-07-22T12:11:54;31.50;90.80
2893;DHT22;1456;51.840;12.184;2022-07-22T12:14:23;32.60;89.00
2893;DHT22;1456;51.840;12.184;2022-07-22T12:19:27;31.50;79.20
2893;DHT22;1456;51.840;12.184;2022-07-22T12:24:44;30.50;83.30
2893;DHT22;1456;51.840;12.184;2022-07-22T12:27:13;29.80;87.70
2893;DHT22;1456;51.840;12.184;2022-07-22T12:29:43;29.60;81.10
2893;DHT22;1456;51.840;12.184;2022-07-22T12:32:18;29.30;84.90
2893;DHT22;1456;51.840;12.184;2022-07-22T12:35:01;29.10;84.80
2893;DHT22;1456;51.840;12.184;2022-07-22T12:37:33;30.10;82.60
2893;DHT22;1456;51.840;12.184;2022-07-22T12:40:11;31.70;78.70
2893;DHT22;1456;51.840;12.184;2022-07-22T12:43:03;33.30;79.60
2893;DHT22;1456;51.840;12.184;2022-07-22T12:45:31;34.40;72.20
2893;DHT22;1456;51.840;12.184;2022-07-22T12:48:06;35.60;71.10
2893;DHT22;1456;51.840;12.184;2022-07-22T12:53:01;36.30;68.60
2893;DHT22;1456;51.840;12.184;2022-07-22T12:55:28;35.90;66.50
2893;DHT22;1456;51.840;12.184;2022-07-22T12:57:56;35.10;67.90
2893;DHT22;1456;51.840;12.184;2022-07-22T13:00:24;35.80;64.00
2893;DHT22;1456;51.840;12.184;2022-07-22T13:02:51;36.10;65.70
2893;DHT22;1456;51.840;12.184;2022-07-22T13:05:17;35.10;71.70
2893;DHT22;1456;51.840;12.184;2022-07-22T13:07:44;33.70;69.70
2893;DHT22;1456;51.840;12.184;2022-07-22T13:10:11;32.80;71.30
2893;DHT22;1456;51.840;12.184;2022-07-22T13:12:38;33.40;71.60
2893;DHT22;1456;51.840;12.184;2022-07-22T13:15:04;34.80;70.10
2893;DHT22;1456;51.840;12.184;2022-07-22T13:17:30;35.80;64.80
2893;DHT22;1456;51.840;12.184;2022-07-22T13:19:56;35.80;68.70
2893;DHT22;1456;51.840;12.184;2022-07-22T13:22:22;36.20;72.40
2893;DHT22;1456;51.840;12.184;2022-07-22T13:24:47;37.30;59.60
2893;DHT22;1456;51.840;12.184;2022-07-22T13:27:13;37.80;66.60
2893;DHT22;1456;51.840;12.184;2022-07-22T13:29:39;38.30;66.10
2893;DHT22;1456;51.840;12.184;2022-07-22T13:32:05;36.90;61.40
2893;DHT22;1456;51.840;12.184;2022-07-22T13:34:31;37.00;64.90
2893;DHT22;1456;51.840;12.184;2022-07-22T13:36:57;38.20;58.90
2893;DHT22;1456;51.840;12.184;2022-07-22T13:39:22;38.40;59.30
2893;DHT22;1456;51.840;12.184;2022-07-22T13:41:48;37.80;62.60
2893;DHT22;1456;51.840;12.184;2022-07-22T13:44:14;38.30;66.70
2893;DHT22;1456;51.840;12.184;2022-07-22T13:46:39;39.90;57.80
2893;DHT22;1456;51.840;12.184;2022-07-22T13:49:05;41.20;57.80
2893;DHT22;1456;51.840;12.184;2022-07-22T13:51:33;42.20;53.90
2893;DHT22;1456;51.840;12.184;2022-07-22T13:54:02;42.00;52.40
2893;DHT22;1456;51.840;12.184;2022-07-22T13:56:28;42.10;50.50
2893;DHT22;1456;51.840;12.184;2022-07-22T13:58:53;41.60;49.60
2893;DHT22;1456;51.840;12.184;2022-07-22T14:01:19;40.80;51.70
2893;DHT22;1456;51.840;12.184;2022-07-22T14:03:45;41.10;50.10
2893;DHT22;1456;51.840;12.184;2022-07-22T14:06:10;40.70;49.00
2893;DHT22;1456;51.840;12.184;2022-07-22T14:08:36;40.30;49.20
2893;DHT22;1456;51.840;12.184;2022-07-22T14:11:03;39.80;49.30
2893;DHT22;1456;51.840;12.184;2022-07-22T14:13:29;38.10;49.60
2893;DHT22;1456;51.840;12.184;2022-07-22T14:15:55;36.20;51.60
2893;DHT22;1456;51.840;12.184;2022-07-22T14:18:21;34.80;55.20
2893;DHT22;1456;51.840;12.184;2022-07-22T14:20:47;33.40;54.00
2893;DHT22;1456;51.840;12.184;2022-07-22T14:23:15;32.30;60.00
2893;DHT22;1456;51.840;12.184;2022-07-22T14:25:45;32.10;62.20
2893;DHT22;1456;51.840;12.184;2022-07-22T14:28:11;31.80;59.50
2893;DHT22;1456;51.840;12.184;2022-07-22T14:30:37;31.70;60.80
2893;DHT22;1456;51.840;12.184;2022-07-22T14:33:03;31.40;57.90
2893;DHT22;1456;51.840;12.184;2022-07-22T14:35:28;30.90;58.90
2893;DHT22;1456;51.840;12.184;2022-07-22T14:37:54;30.40;61.10
2893;DHT22;1456;51.840;12.184;2022-07-22T14:40:23;30.40;67.90
2893;DHT22;1456;51.840;12.184;2022-07-22T14:42:48;30.70;62.30
2893;DHT22;1456;51.840;12.184;2022-07-22T14:45:15;31.30;64.80
2893;DHT22;1456;51.840;12.184;2022-07-22T14:47:40;33.50;59.10
2893;DHT22;1456;51.840;12.184;2022-07-22T14:50:07;35.40;61.30
2893;DHT22;1456;51.840;12.184;2022-07-22T14:52:33;36.90;59.90
2893;DHT22;1456;51.840;12.184;2022-07-22T14:54:59;37.80;54.50
2893;DHT22;1456;51.840;12.184;2022-07-22T14:57:25;38.20;52.00
2893;DHT22;1456;51.840;12.184;2022-07-22T14:59:54;38.00;55.60
2893;DHT22;1456;51.840;12.184;2022-07-22T15:02:20;38.80;52.90
2893;DHT22;1456;51.840;12.184;2022-07-22T15:04:46;38.40;50.10
2893;DHT22;1456;51.840;12.184;2022-07-22T15:07:12;37.10;53.40
2893;DHT22;1456;51.840;12.184;2022-07-22T15:09:38;37.10;52.90
2893;DHT22;1456;51.840;12.184;2022-07-22T15:12:04;37.70;56.20
2893;DHT22;1456;51.840;12.184;2022-07-22T15:14:29;37.80;52.10
2893;DHT22;1456;51.840;12.184;2022-07-22T15:16:58;37.00;51.00
2893;DHT22;1456;51.840;12.184;2022-07-22T15:19:24;35.20;52.90
2893;DHT22;1456;51.840;12.184;2022-07-22T15:21:49;35.10;54.20
2893;DHT22;1456;51.840;12.184;2022-07-22T15:24:15;36.50;57.80
2893;DHT22;1456;51.840;12.184;2022-07-22T15:26:41;38.20;51.40
2893;DHT22;1456;51.840;12.184;2022-07-22T15:29:06;39.40;51.30
2893;DHT22;1456;51.840;12.184;2022-07-22T15:31:33;40.50;52.70
2893;DHT22;1456;51.840;12.184;2022-07-22T15:33:59;41.20;49.10
2893;DHT22;1456;51.840;12.184;2022-07-22T15:36:29;42.00;47.90
2893;DHT22;1456;51.840;12.184;2022-07-22T15:38:54;40.40;45.50
2893;DHT22;1456;51.840;12.184;2022-07-22T15:41:20;40.60;48.00
2893;DHT22;1456;51.840;12.184;2022-07-22T15:43:47;39.30;48.80
2893;DHT22;1456;51.840;12.184;2022-07-22T15:46:13;39.40;50.10
2893;DHT22;1456;51.840;12.184;2022-07-22T15:48:38;40.40;47.70
2893;DHT22;1456;51.840;12.184;2022-07-22T15:51:08;41.00;48.70
2893;DHT22;1456;51.840;12.184;2022-07-22T15:53:35;41.40;46.50